sensor_id;sensor_type;location;lat;lon;timestamp;P1;durP1;ratioP1;P2;durP2;ratioP2
53389;SDS011;39288;42.970;1.524;2023-05-16T00:00:12;2.67;;;2.08;;
53389;SDS011;39288;42.970;1.524;2023-05-16T00:01:13;2.72;;;2.17;;
53389;SDS011;39288;42.970;1.524;2023-05-16T00:02:15;2.92;;;1.95;;
53389;SDS011;39288;42.970;1.524;2023-05-16T00:03:18;3.30;;;2.30;;
53389;SDS011;39288;42.970;1.524;2023-05-16T00:04:19;4.90;;;1.98;;
53389;SDS011;39288;42.970;1.524;2023-05-16T00:05:20;3.93;;;2.33;;
53389;SDS011;39288;42.970;1.524;2023-05-16T00:06:21;2.57;;;1.70;;
53389;SDS011;39288;42.970;1.524;2023-05-16T00:07:22;4.30;;;2.53;;
53389;SDS011;39288;42.970;1.524;2023-05-16T00:08:22;5.10;;;2.10;;
53389;SDS011;39288;42.970;1.524;2023-05-16T00:09:23;2.93;;;2.17;;
53389;SDS011;39288;42.970;1.524;2023-05-16T00:10:23;6.90;;;2.57;;
53389;SDS011;39288;42.970;1.524;2023-05-16T00:11:23;6.23;;;3.40;;
53389;SDS011;39288;42.970;1.524;2023-05-16T00:12:24;7.57;;;3.43;;
53389;SDS011;39288;42.970;1.524;2023-05-16T00:13:25;3.53;;;2.60;;
53389;SDS011;39288;42.970;1.524;2023-05-16T00:14:25;3.67;;;2.63;;
53389;SDS011;39288;42.970;1.524;2023-05-16T00:15:26;3.80;;;2.50;;
53389;SDS011;39288;42.970;1.524;2023-05-16T00:16:28;2.42;;;2.08;;
53389;SDS011;39288;42.970;1.524;2023-05-16T00:17:29;4.13;;;2.20;;
53389;SDS011;39288;42.970;1.524;2023-05-16T00:18:30;2.73;;;1.83;;
53389;SDS011;39288;42.970;1.524;2023-05-16T00:19:30;4.30;;;2.30;;
53389;SDS011;39288;42.970;1.524;2023-05-16T00:20:31;4.93;;;2.92;;
53389;SDS011;39288;42.970;1.524;2023-05-16T00:21:33;2.53;;;2.00;;
53389;SDS011;39288;42.970;1.524;2023-05-16T00:22:33;2.30;;;2.00;;
53389;SDS011;39288;42.970;1.524;2023-05-16T00:23:33;3.27;;;1.97;;
53389;SDS011;39288;42.970;1.524;2023-05-16T00:24:34;3.93;;;2.10;;
53389;SDS011;39288;42.970;1.524;2023-05-16T00:25:35;3.33;;;2.03;;
53389;SDS011;39288;42.970;1.524;2023-05-16T00:26:36;2.80;;;1.90;;
53389;SDS011;39288;42.970;1.524;2023-05-16T00:27:36;4.57;;;2.30;;
53389;SDS011;39288;42.970;1.524;2023-05-16T00:28:36;4.87;;;2.07;;
53389;SDS011;39288;42.970;1.524;2023-05-16T00:29:37;2.57;;;2.10;;
53389;SDS011;39288;42.970;1.524;2023-05-16T00:30:37;3.63;;;2.07;;
53389;SDS011;39288;42.970;1.524;2023-05-16T00:31:38;2.93;;;2.20;;
53389;SDS011;39288;42.970;1.524;2023-05-16T00:32:38;4.27;;;2.50;;
53389;SDS011;39288;42.970;1.524;2023-05-16T00:33:39;2.70;;;2.23;;
53389;SDS011;39288;42.970;1.524;2023-05-16T00:34:39;4.10;;;2.20;;
53389;SDS011;39288;42.970;1.524;2023-05-16T00:35:40;2.87;;;2.30;;
53389;SDS011;39288;42.970;1.524;2023-05-16T00:36:40;4.33;;;2.60;;
53389;SDS011;39288;42.970;1.524;2023-05-16T00:37:40;5.47;;;2.60;;
53389;SDS011;39288;42.970;1.524;2023-05-16T00:38:41;4.27;;;2.37;;
53389;SDS011;39288;42.970;1.524;2023-05-16T00:39:41;5.50;;;2.40;;
53389;SDS011;39288;42.970;1.524;2023-05-16T00:40:42;3.13;;;2.13;;
53389;SDS011;39288;42.970;1.524;2023-05-16T00:41:43;5.20;;;2.73;;
53389;SDS011;39288;42.970;1.524;2023-05-16T00:42:43;4.50;;;2.20;;
53389;SDS011;39288;42.970;1.524;2023-05-16T00:43:44;2.53;;;2.33;;
53389;SDS011;39288;42.970;1.524;2023-05-16T00:44:44;4.53;;;2.33;;
53389;SDS011;39288;42.970;1.524;2023-05-16T00:45:45;4.77;;;2.20;;
53389;SDS011;39288;42.970;1.524;2023-05-16T00:46:45;4.10;;;2.40;;
53389;SDS011;39288;42.970;1.524;2023-05-16T00:47:46;4.57;;;2.73;;
53389;SDS011;39288;42.970;1.524;2023-05-16T00:48:47;3.47;;;2.30;;
53389;SDS011;39288;42.970;1.524;2023-05-16T00:49:47;3.30;;;2.20;;
53389;SDS011;39288;42.970;1.524;2023-05-16T00:50:48;4.73;;;2.47;;
53389;SDS011;39288;42.970;1.524;2023-05-16T00:51:49;3.47;;;2.35;;
53389;SDS011;39288;42.970;1.524;2023-05-16T00:52:50;3.40;;;1.83;;
53389;SDS011;39288;42.970;1.524;2023-05-16T00:53:50;6.47;;;2.70;;
53389;SDS011;39288;42.970;1.524;2023-05-16T00:54:51;4.17;;;2.07;;
53389;SDS011;39288;42.970;1.524;2023-05-16T00:55:51;3.23;;;2.13;;
53389;SDS011;39288;42.970;1.524;2023-05-16T00:56:52;2.80;;;2.07;;
53389;SDS011;39288;42.970;1.524;2023-05-16T00:57:52;2.67;;;2.07;;
53389;SDS011;39288;42.970;1.524;2023-05-16T00:58:53;3.73;;;1.87;;
53389;SDS011;39288;42.970;1.524;2023-05-16T00:59:53;3.93;;;1.90;;
53389;SDS011;39288;42.970;1.524;2023-05-16T01:00:54;2.90;;;1.90;;
53389;SDS011;39288;42.970;1.524;2023-05-16T01:01:55;6.23;;;1.87;;
53389;SDS011;39288;42.970;1.524;2023-05-16T01:02:55;3.70;;;1.80;;
53389;SDS011;39288;42.970;1.524;2023-05-16T01:03:56;2.63;;;1.70;;
53389;SDS011;39288;42.970;1.524;2023-05-16T01:04:57;2.83;;;1.70;;
53389;SDS011;39288;42.970;1.524;2023-05-16T01:05:57;5.30;;;2.27;;
53389;SDS011;39288;42.970;1.524;2023-05-16T01:06:58;3.03;;;1.60;;
53389;SDS011;39288;42.970;1.524;2023-05-16T01:07:59;2.45;;;1.73;;
53389;SDS011;39288;42.970;1.524;2023-05-16T01:08:59;3.13;;;1.83;;
53389;SDS011;39288;42.970;1.524;2023-05-16T01:10:00;2.77;;;1.73;;
53389;SDS011;39288;42.970;1.524;2023-05-16T01:11:26;2.03;;;1.50;;
53389;SDS011;39288;42.970;1.524;2023-05-16T01:13:58;5.18;;;1.70;;
53389;SDS011;39288;42.970;1.524;2023-05-16T01:15:21;2.20;;;1.60;;
53389;SDS011;39288;42.970;1.524;2023-05-16T01:16:28;3.00;;;1.75;;
53389;SDS011;39288;42.970;1.524;2023-05-16T01:18:44;3.42;;;1.60;;
53389;SDS011;39288;42.970;1.524;2023-05-16T01:20:55;2.50;;;1.70;;
53389;SDS011;39288;42.970;1.524;2023-05-16T01:23:18;2.58;;;1.40;;
53389;SDS011;39288;42.970;1.524;2023-05-16T01:24:32;2.08;;;1.38;;
53389;SDS011;39288;42.970;1.524;2023-05-16T01:27:11;1.98;;;1.35;;
53389;SDS011;39288;42.970;1.524;2023-05-16T01:28:13;2.72;;;1.27;;
53389;SDS011;39288;42.970;1.524;2023-05-16T01:29:15;2.55;;;1.20;;
53389;SDS011;39288;42.970;1.524;2023-05-16T01:30:17;2.97;;;1.50;;
53389;SDS011;39288;42.970;1.524;2023-05-16T01:31:18;2.25;;;1.17;;
53389;SDS011;39288;42.970;1.524;2023-05-16T01:32:20;2.83;;;1.30;;
53389;SDS011;39288;42.970;1.524;2023-05-16T01:33:21;2.17;;;1.38;;
53389;SDS011;39288;42.970;1.524;2023-05-16T01:34:22;1.70;;;1.30;;
53389;SDS011;39288;42.970;1.524;2023-05-16T01:35:22;1.63;;;1.30;;
53389;SDS011;39288;42.970;1.524;2023-05-16T01:36:24;2.80;;;1.30;;
53389;SDS011;39288;42.970;1.524;2023-05-16T01:37:29;2.67;;;1.30;;
53389;SDS011;39288;42.970;1.524;2023-05-16T01:39:55;1.83;;;1.13;;
53389;SDS011;39288;42.970;1.524;2023-05-16T01:41:01;2.00;;;1.05;;
53389;SDS011;39288;42.970;1.524;2023-05-16T01:42:07;1.42;;;1.20;;
53389;SDS011;39288;42.970;1.524;2023-05-16T01:43:14;1.58;;;1.10;;
53389;SDS011;39288;42.970;1.524;2023-05-16T01:44:18;2.33;;;1.30;;
53389;SDS011;39288;42.970;1.524;2023-05-16T01:45:41;1.85;;;1.30;;
53389;SDS011;39288;42.970;1.524;2023-05-16T01:46:47;2.00;;;1.35;;
53389;SDS011;39288;42.970;1.524;2023-05-16T01:47:51;2.53;;;1.30;;
53389;SDS011;39288;42.970;1.524;2023-05-16T01:50:23;9.02;;;1.40;;
53389;SDS011;39288;42.970;1.524;2023-05-16T01:52:31;3.60;;;1.55;;
53389;SDS011;39288;42.970;1.524;2023-05-16T01:53:36;2.15;;;1.30;;
53389;SDS011;39288;42.970;1.524;2023-05-16T01:54:38;2.22;;;1.38;;
53389;SDS011;39288;42.970;1.524;2023-05-16T01:55:44;1.45;;;1.25;;
53389;SDS011;39288;42.970;1.524;2023-05-16T01:56:49;3.15;;;1.30;;
53389;SDS011;39288;42.970;1.524;2023-05-16T01:57:51;1.52;;;1.27;;
53389;SDS011;39288;42.970;1.524;2023-05-16T01:58:52;1.77;;;1.30;;
53389;SDS011;39288;42.970;1.524;2023-05-16T01:59:53;2.33;;;1.60;;
53389;SDS011;39288;42.970;1.524;2023-05-16T02:00:54;2.07;;;1.57;;
53389;SDS011;39288;42.970;1.524;2023-05-16T02:01:59;2.92;;;1.85;;
53389;SDS011;39288;42.970;1.524;2023-05-16T02:03:00;6.23;;;2.00;;
53389;SDS011;39288;42.970;1.524;2023-05-16T02:04:00;3.50;;;1.43;;
53389;SDS011;39288;42.970;1.524;2023-05-16T02:05:01;2.60;;;1.80;;
53389;SDS011;39288;42.970;1.524;2023-05-16T02:06:01;3.47;;;1.47;;
53389;SDS011;39288;42.970;1.524;2023-05-16T02:07:02;2.47;;;1.30;;
53389;SDS011;39288;42.970;1.524;2023-05-16T02:08:02;1.80;;;1.23;;
53389;SDS011;39288;42.970;1.524;2023-05-16T02:09:03;4.20;;;2.15;;
53389;SDS011;39288;42.970;1.524;2023-05-16T02:10:04;2.47;;;1.67;;
53389;SDS011;39288;42.970;1.524;2023-05-16T02:11:05;1.90;;;1.30;;
53389;SDS011;39288;42.970;1.524;2023-05-16T02:12:05;2.57;;;1.50;;
53389;SDS011;39288;42.970;1.524;2023-05-16T02:13:07;3.20;;;1.73;;
53389;SDS011;39288;42.970;1.524;2023-05-16T02:14:08;2.95;;;1.80;;
53389;SDS011;39288;42.970;1.524;2023-05-16T02:15:09;1.60;;;1.40;;
53389;SDS011;39288;42.970;1.524;2023-05-16T02:16:10;3.57;;;2.00;;
53389;SDS011;39288;42.970;1.524;2023-05-16T02:17:10;8.27;;;1.73;;
53389;SDS011;39288;42.970;1.524;2023-05-16T02:18:11;3.50;;;2.00;;
53389;SDS011;39288;42.970;1.524;2023-05-16T02:19:12;2.83;;;1.63;;
53389;SDS011;39288;42.970;1.524;2023-05-16T02:20:12;3.43;;;2.03;;
53389;SDS011;39288;42.970;1.524;2023-05-16T02:21:13;4.57;;;1.97;;
53389;SDS011;39288;42.970;1.524;2023-05-16T02:22:13;4.77;;;2.00;;
53389;SDS011;39288;42.970;1.524;2023-05-16T02:23:14;2.90;;;2.20;;
53389;SDS011;39288;42.970;1.524;2023-05-16T02:24:14;3.17;;;1.57;;
53389;SDS011;39288;42.970;1.524;2023-05-16T02:25:15;4.23;;;1.93;;
53389;SDS011;39288;42.970;1.524;2023-05-16T02:26:15;3.40;;;1.93;;
53389;SDS011;39288;42.970;1.524;2023-05-16T02:27:16;3.83;;;1.47;;
53389;SDS011;39288;42.970;1.524;2023-05-16T02:28:16;6.50;;;2.10;;
53389;SDS011;39288;42.970;1.524;2023-05-16T02:29:17;3.97;;;1.90;;
53389;SDS011;39288;42.970;1.524;2023-05-16T02:30:17;4.50;;;2.03;;
53389;SDS011;39288;42.970;1.524;2023-05-16T02:33:31;3.13;;;1.90;;
53389;SDS011;39288;42.970;1.524;2023-05-16T02:34:31;2.90;;;1.77;;
53389;SDS011;39288;42.970;1.524;2023-05-16T02:35:32;4.70;;;1.90;;
53389;SDS011;39288;42.970;1.524;2023-05-16T02:36:32;2.87;;;1.77;;
53389;SDS011;39288;42.970;1.524;2023-05-16T02:37:34;4.05;;;1.80;;
53389;SDS011;39288;42.970;1.524;2023-05-16T02:38:35;2.80;;;1.63;;
53389;SDS011;39288;42.970;1.524;2023-05-16T02:39:36;4.77;;;1.83;;
53389;SDS011;39288;42.970;1.524;2023-05-16T02:40:36;4.23;;;1.43;;
53389;SDS011;39288;42.970;1.524;2023-05-16T02:41:37;2.20;;;1.60;;
53389;SDS011;39288;42.970;1.524;2023-05-16T02:42:37;3.57;;;1.90;;
53389;SDS011;39288;42.970;1.524;2023-05-16T02:43:38;3.40;;;1.33;;
53389;SDS011;39288;42.970;1.524;2023-05-16T02:44:38;2.83;;;1.50;;
53389;SDS011;39288;42.970;1.524;2023-05-16T02:45:39;2.27;;;1.57;;
53389;SDS011;39288;42.970;1.524;2023-05-16T02:46:39;2.70;;;1.70;;
53389;SDS011;39288;42.970;1.524;2023-05-16T02:47:40;2.27;;;1.67;;
53389;SDS011;39288;42.970;1.524;2023-05-16T02:48:40;1.83;;;1.50;;
53389;SDS011;39288;42.970;1.524;2023-05-16T02:49:41;2.43;;;1.43;;
53389;SDS011;39288;42.970;1.524;2023-05-16T02:50:41;3.53;;;1.50;;
53389;SDS011;39288;42.970;1.524;2023-05-16T02:51:42;1.97;;;1.53;;
53389;SDS011;39288;42.970;1.524;2023-05-16T02:52:42;3.83;;;1.60;;
53389;SDS011;39288;42.970;1.524;2023-05-16T02:53:43;2.83;;;1.70;;
53389;SDS011;39288;42.970;1.524;2023-05-16T02:54:43;3.13;;;1.80;;
53389;SDS011;39288;42.970;1.524;2023-05-16T02:55:44;3.97;;;1.80;;
53389;SDS011;39288;42.970;1.524;2023-05-16T02:56:44;3.17;;;1.80;;
53389;SDS011;39288;42.970;1.524;2023-05-16T02:57:45;3.17;;;1.90;;
53389;SDS011;39288;42.970;1.524;2023-05-16T02:58:46;4.63;;;1.90;;
53389;SDS011;39288;42.970;1.524;2023-05-16T03:00:47;2.80;;;1.73;;
53389;SDS011;39288;42.970;1.524;2023-05-16T03:01:48;3.23;;;2.13;;
53389;SDS011;39288;42.970;1.524;2023-05-16T03:02:48;3.90;;;1.90;;
53389;SDS011;39288;42.970;1.524;2023-05-16T03:03:49;2.70;;;1.73;;
53389;SDS011;39288;42.970;1.524;2023-05-16T03:04:50;3.20;;;2.10;;
53389;SDS011;39288;42.970;1.524;2023-05-16T03:05:50;3.40;;;1.93;;
53389;SDS011;39288;42.970;1.524;2023-05-16T03:06:50;3.07;;;1.70;;
53389;SDS011;39288;42.970;1.524;2023-05-16T03:07:51;3.60;;;2.00;;
53389;SDS011;39288;42.970;1.524;2023-05-16T03:08:51;2.13;;;1.70;;
53389;SDS011;39288;42.970;1.524;2023-05-16T03:09:52;3.60;;;1.77;;
53389;SDS011;39288;42.970;1.524;2023-05-16T03:10:52;3.73;;;2.07;;
53389;SDS011;39288;42.970;1.524;2023-05-16T03:11:53;2.97;;;2.10;;
53389;SDS011;39288;42.970;1.524;2023-05-16T03:12:53;3.03;;;1.57;;
53389;SDS011;39288;42.970;1.524;2023-05-16T03:13:54;3.80;;;1.97;;
53389;SDS011;39288;42.970;1.524;2023-05-16T03:14:54;2.37;;;1.80;;
53389;SDS011;39288;42.970;1.524;2023-05-16T03:15:55;3.00;;;1.90;;
53389;SDS011;39288;42.970;1.524;2023-05-16T03:16:55;3.27;;;1.83;;
53389;SDS011;39288;42.970;1.524;2023-05-16T03:17:56;4.37;;;1.77;;
53389;SDS011;39288;42.970;1.524;2023-05-16T03:18:56;2.90;;;1.90;;
53389;SDS011;39288;42.970;1.524;2023-05-16T03:19:56;4.00;;;2.00;;
53389;SDS011;39288;42.970;1.524;2023-05-16T03:20:57;3.57;;;1.90;;
53389;SDS011;39288;42.970;1.524;2023-05-16T03:21:58;2.33;;;1.83;;
53389;SDS011;39288;42.970;1.524;2023-05-16T03:22:59;2.93;;;1.83;;
53389;SDS011;39288;42.970;1.524;2023-05-16T03:24:00;3.10;;;1.50;;
53389;SDS011;39288;42.970;1.524;2023-05-16T03:25:02;1.80;;;1.50;;
53389;SDS011;39288;42.970;1.524;2023-05-16T03:26:03;2.80;;;1.80;;
53389;SDS011;39288;42.970;1.524;2023-05-16T03:27:04;2.77;;;2.00;;
53389;SDS011;39288;42.970;1.524;2023-05-16T03:28:05;2.40;;;1.60;;
53389;SDS011;39288;42.970;1.524;2023-05-16T03:29:08;4.13;;;1.90;;
53389;SDS011;39288;42.970;1.524;2023-05-16T03:30:09;2.37;;;1.70;;
53389;SDS011;39288;42.970;1.524;2023-05-16T03:31:10;3.08;;;2.05;;
53389;SDS011;39288;42.970;1.524;2023-05-16T03:32:11;3.03;;;1.80;;
53389;SDS011;39288;42.970;1.524;2023-05-16T03:33:11;4.40;;;1.93;;
53389;SDS011;39288;42.970;1.524;2023-05-16T03:34:12;3.93;;;2.37;;
53389;SDS011;39288;42.970;1.524;2023-05-16T03:35:12;2.93;;;2.03;;
53389;SDS011;39288;42.970;1.524;2023-05-16T03:36:13;4.20;;;2.10;;
53389;SDS011;39288;42.970;1.524;2023-05-16T03:37:13;3.33;;;2.17;;
53389;SDS011;39288;42.970;1.524;2023-05-16T03:38:15;2.53;;;1.80;;
53389;SDS011;39288;42.970;1.524;2023-05-16T03:39:16;2.83;;;2.08;;
53389;SDS011;39288;42.970;1.524;2023-05-16T03:40:16;4.33;;;1.70;;
53389;SDS011;39288;42.970;1.524;2023-05-16T03:41:17;2.43;;;1.67;;
53389;SDS011;39288;42.970;1.524;2023-05-16T03:42:17;2.37;;;1.70;;
53389;SDS011;39288;42.970;1.524;2023-05-16T03:43:18;2.27;;;1.60;;
53389;SDS011;39288;42.970;1.524;2023-05-16T03:44:18;3.27;;;2.00;;
53389;SDS011;39288;42.970;1.524;2023-05-16T03:45:18;2.97;;;1.93;;
53389;SDS011;39288;42.970;1.524;2023-05-16T03:46:19;3.83;;;2.10;;
53389;SDS011;39288;42.970;1.524;2023-05-16T03:47:19;4.77;;;1.90;;
53389;SDS011;39288;42.970;1.524;2023-05-16T03:48:20;4.23;;;2.00;;
53389;SDS011;39288;42.970;1.524;2023-05-16T03:49:24;3.13;;;1.70;;
53389;SDS011;39288;42.970;1.524;2023-05-16T03:50:27;4.68;;;2.22;;
53389;SDS011;39288;42.970;1.524;2023-05-16T03:51:27;4.00;;;2.03;;
53389;SDS011;39288;42.970;1.524;2023-05-16T03:52:29;3.22;;;2.03;;
53389;SDS011;39288;42.970;1.524;2023-05-16T03:53:30;5.07;;;2.00;;
53389;SDS011;39288;42.970;1.524;2023-05-16T03:54:30;2.47;;;1.80;;
53389;SDS011;39288;42.970;1.524;2023-05-16T03:55:30;3.37;;;2.40;;
53389;SDS011;39288;42.970;1.524;2023-05-16T03:56:31;4.77;;;2.07;;
53389;SDS011;39288;42.970;1.524;2023-05-16T03:57:31;5.77;;;2.17;;
53389;SDS011;39288;42.970;1.524;2023-05-16T03:58:32;2.95;;;2.00;;
53389;SDS011;39288;42.970;1.524;2023-05-16T03:59:33;4.60;;;2.10;;
53389;SDS011;39288;42.970;1.524;2023-05-16T04:00:34;4.23;;;2.00;;
53389;SDS011;39288;42.970;1.524;2023-05-16T04:01:35;4.85;;;2.28;;
53389;SDS011;39288;42.970;1.524;2023-05-16T04:02:36;4.60;;;2.20;;
53389;SDS011;39288;42.970;1.524;2023-05-16T04:03:36;3.93;;;2.50;;
53389;SDS011;39288;42.970;1.524;2023-05-16T04:04:37;4.20;;;2.33;;
53389;SDS011;39288;42.970;1.524;2023-05-16T04:05:37;3.07;;;2.30;;
53389;SDS011;39288;42.970;1.524;2023-05-16T04:06:38;6.10;;;2.37;;
53389;SDS011;39288;42.970;1.524;2023-05-16T04:07:39;5.10;;;2.50;;
53389;SDS011;39288;42.970;1.524;2023-05-16T04:08:40;3.20;;;2.50;;
53389;SDS011;39288;42.970;1.524;2023-05-16T04:09:43;3.25;;;2.35;;
53389;SDS011;39288;42.970;1.524;2023-05-16T04:10:44;3.17;;;2.10;;
53389;SDS011;39288;42.970;1.524;2023-05-16T04:11:44;4.40;;;2.50;;
53389;SDS011;39288;42.970;1.524;2023-05-16T04:12:45;5.37;;;2.03;;
53389;SDS011;39288;42.970;1.524;2023-05-16T04:13:45;2.53;;;2.07;;
53389;SDS011;39288;42.970;1.524;2023-05-16T04:14:46;4.63;;;1.93;;
53389;SDS011;39288;42.970;1.524;2023-05-16T04:15:46;4.50;;;2.33;;
53389;SDS011;39288;42.970;1.524;2023-05-16T04:16:47;3.93;;;2.80;;
53389;SDS011;39288;42.970;1.524;2023-05-16T04:17:47;5.67;;;2.70;;
53389;SDS011;39288;42.970;1.524;2023-05-16T04:18:48;2.97;;;1.80;;
53389;SDS011;39288;42.970;1.524;2023-05-16T04:19:48;4.23;;;2.40;;
53389;SDS011;39288;42.970;1.524;2023-05-16T04:20:48;3.97;;;2.30;;
53389;SDS011;39288;42.970;1.524;2023-05-16T04:21:49;2.63;;;1.83;;
53389;SDS011;39288;42.970;1.524;2023-05-16T04:22:51;3.70;;;2.08;;
53389;SDS011;39288;42.970;1.524;2023-05-16T04:23:51;4.93;;;1.90;;
53389;SDS011;39288;42.970;1.524;2023-05-16T04:24:52;5.10;;;2.33;;
53389;SDS011;39288;42.970;1.524;2023-05-16T04:25:52;5.90;;;2.23;;
53389;SDS011;39288;42.970;1.524;2023-05-16T04:26:53;5.53;;;2.50;;
53389;SDS011;39288;42.970;1.524;2023-05-16T04:27:54;4.18;;;2.10;;
53389;SDS011;39288;42.970;1.524;2023-05-16T04:28:55;5.37;;;3.47;;
53389;SDS011;39288;42.970;1.524;2023-05-16T04:29:56;4.35;;;2.15;;
53389;SDS011;39288;42.970;1.524;2023-05-16T04:30:56;3.40;;;2.20;;
53389;SDS011;39288;42.970;1.524;2023-05-16T04:31:57;3.27;;;2.33;;
53389;SDS011;39288;42.970;1.524;2023-05-16T04:32:57;4.07;;;2.37;;
53389;SDS011;39288;42.970;1.524;2023-05-16T04:33:58;4.47;;;2.10;;
53389;SDS011;39288;42.970;1.524;2023-05-16T04:34:59;3.27;;;2.00;;
53389;SDS011;39288;42.970;1.524;2023-05-16T04:35:59;3.70;;;2.43;;
53389;SDS011;39288;42.970;1.524;2023-05-16T04:37:00;3.57;;;2.13;;
53389;SDS011;39288;42.970;1.524;2023-05-16T04:38:01;6.00;;;2.50;;
53389;SDS011;39288;42.970;1.524;2023-05-16T04:39:01;4.90;;;2.53;;
53389;SDS011;39288;42.970;1.524;2023-05-16T04:40:02;3.70;;;2.43;;
53389;SDS011;39288;42.970;1.524;2023-05-16T04:41:03;3.60;;;2.10;;
53389;SDS011;39288;42.970;1.524;2023-05-16T04:42:04;3.67;;;2.20;;
53389;SDS011;39288;42.970;1.524;2023-05-16T04:43:04;5.43;;;2.28;;
53389;SDS011;39288;42.970;1.524;2023-05-16T04:44:05;4.23;;;1.93;;
53389;SDS011;39288;42.970;1.524;2023-05-16T04:45:06;5.10;;;2.40;;
53389;SDS011;39288;42.970;1.524;2023-05-16T04:46:09;4.38;;;2.10;;
53389;SDS011;39288;42.970;1.524;2023-05-16T04:47:10;8.90;;;3.00;;
53389;SDS011;39288;42.970;1.524;2023-05-16T04:48:11;4.10;;;2.40;;
53389;SDS011;39288;42.970;1.524;2023-05-16T04:49:12;3.17;;;1.90;;
53389;SDS011;39288;42.970;1.524;2023-05-16T04:50:13;5.60;;;2.40;;
53389;SDS011;39288;42.970;1.524;2023-05-16T04:51:15;6.35;;;2.60;;
53389;SDS011;39288;42.970;1.524;2023-05-16T04:52:15;3.90;;;1.93;;
53389;SDS011;39288;42.970;1.524;2023-05-16T04:53:16;5.93;;;2.80;;
53389;SDS011;39288;42.970;1.524;2023-05-16T04:54:16;3.83;;;2.40;;
53389;SDS011;39288;42.970;1.524;2023-05-16T04:55:16;4.23;;;2.10;;
53389;SDS011;39288;42.970;1.524;2023-05-16T04:56:17;5.83;;;2.37;;
53389;SDS011;39288;42.970;1.524;2023-05-16T04:57:18;2.72;;;2.03;;
53389;SDS011;39288;42.970;1.524;2023-05-16T04:58:19;4.40;;;2.27;;
53389;SDS011;39288;42.970;1.524;2023-05-16T04:59:19;2.30;;;1.83;;
53389;SDS011;39288;42.970;1.524;2023-05-16T05:00:20;5.50;;;2.77;;
53389;SDS011;39288;42.970;1.524;2023-05-16T05:01:21;4.73;;;2.20;;
53389;SDS011;39288;42.970;1.524;2023-05-16T05:02:21;6.67;;;2.50;;
53389;SDS011;39288;42.970;1.524;2023-05-16T05:03:22;6.57;;;2.70;;
53389;SDS011;39288;42.970;1.524;2023-05-16T05:04:23;6.27;;;2.17;;
53389;SDS011;39288;42.970;1.524;2023-05-16T05:05:24;3.40;;;2.00;;
53389;SDS011;39288;42.970;1.524;2023-05-16T05:06:24;3.30;;;2.10;;
53389;SDS011;39288;42.970;1.524;2023-05-16T05:07:25;3.20;;;1.90;;
53389;SDS011;39288;42.970;1.524;2023-05-16T05:08:27;4.63;;;2.35;;
53389;SDS011;39288;42.970;1.524;2023-05-16T05:09:28;4.37;;;1.90;;
53389;SDS011;39288;42.970;1.524;2023-05-16T05:10:28;4.57;;;2.53;;
53389;SDS011;39288;42.970;1.524;2023-05-16T05:11:30;3.45;;;2.20;;
53389;SDS011;39288;42.970;1.524;2023-05-16T05:12:31;5.53;;;2.27;;
53389;SDS011;39288;42.970;1.524;2023-05-16T05:13:31;4.07;;;2.47;;
53389;SDS011;39288;42.970;1.524;2023-05-16T05:14:31;4.50;;;2.17;;
53389;SDS011;39288;42.970;1.524;2023-05-16T05:15:32;4.00;;;2.53;;
53389;SDS011;39288;42.970;1.524;2023-05-16T05:16:33;3.90;;;1.87;;
53389;SDS011;39288;42.970;1.524;2023-05-16T05:17:33;2.90;;;1.80;;
53389;SDS011;39288;42.970;1.524;2023-05-16T05:18:34;4.40;;;2.30;;
53389;SDS011;39288;42.970;1.524;2023-05-16T05:19:34;2.90;;;2.00;;
53389;SDS011;39288;42.970;1.524;2023-05-16T05:20:35;4.87;;;2.47;;
53389;SDS011;39288;42.970;1.524;2023-05-16T05:21:35;4.13;;;2.37;;
53389;SDS011;39288;42.970;1.524;2023-05-16T05:22:36;3.78;;;2.10;;
53389;SDS011;39288;42.970;1.524;2023-05-16T05:23:37;4.27;;;2.30;;
53389;SDS011;39288;42.970;1.524;2023-05-16T05:24:37;2.40;;;1.70;;
53389;SDS011;39288;42.970;1.524;2023-05-16T05:25:38;3.47;;;1.87;;
53389;SDS011;39288;42.970;1.524;2023-05-16T05:26:38;2.83;;;1.80;;
53389;SDS011;39288;42.970;1.524;2023-05-16T05:27:39;2.37;;;1.67;;
53389;SDS011;39288;42.970;1.524;2023-05-16T05:28:39;3.57;;;1.90;;
53389;SDS011;39288;42.970;1.524;2023-05-16T05:29:40;3.17;;;1.97;;
53389;SDS011;39288;42.970;1.524;2023-05-16T05:30:40;2.70;;;1.90;;
53389;SDS011;39288;42.970;1.524;2023-05-16T05:31:41;1.97;;;1.77;;
53389;SDS011;39288;42.970;1.524;2023-05-16T05:32:41;3.70;;;1.97;;
53389;SDS011;39288;42.970;1.524;2023-05-16T05:33:42;3.00;;;1.90;;
53389;SDS011;39288;42.970;1.524;2023-05-16T05:34:42;3.97;;;2.60;;
53389;SDS011;39288;42.970;1.524;2023-05-16T05:35:43;4.40;;;1.60;;
53389;SDS011;39288;42.970;1.524;2023-05-16T05:36:43;3.27;;;1.70;;
53389;SDS011;39288;42.970;1.524;2023-05-16T05:37:44;2.23;;;1.57;;
53389;SDS011;39288;42.970;1.524;2023-05-16T05:38:44;3.80;;;1.67;;
53389;SDS011;39288;42.970;1.524;2023-05-16T05:39:45;2.80;;;1.90;;
53389;SDS011;39288;42.970;1.524;2023-05-16T05:40:45;5.40;;;1.87;;
53389;SDS011;39288;42.970;1.524;2023-05-16T05:41:46;3.23;;;2.10;;
53389;SDS011;39288;42.970;1.524;2023-05-16T05:42:46;3.23;;;1.93;;
53389;SDS011;39288;42.970;1.524;2023-05-16T05:43:46;2.63;;;1.70;;
53389;SDS011;39288;42.970;1.524;2023-05-16T05:44:47;3.13;;;1.97;;
53389;SDS011;39288;42.970;1.524;2023-05-16T05:45:47;5.33;;;1.80;;
53389;SDS011;39288;42.970;1.524;2023-05-16T05:46:48;4.67;;;2.43;;
53389;SDS011;39288;42.970;1.524;2023-05-16T05:47:48;2.93;;;1.70;;
53389;SDS011;39288;42.970;1.524;2023-05-16T05:48:50;2.67;;;1.52;;
53389;SDS011;39288;42.970;1.524;2023-05-16T05:49:50;3.43;;;1.63;;
53389;SDS011;39288;42.970;1.524;2023-05-16T05:50:50;1.67;;;1.50;;
53389;SDS011;39288;42.970;1.524;2023-05-16T05:51:52;2.00;;;1.65;;
53389;SDS011;39288;42.970;1.524;2023-05-16T05:52:53;3.67;;;1.93;;
53389;SDS011;39288;42.970;1.524;2023-05-16T05:54:55;3.53;;;1.65;;
53389;SDS011;39288;42.970;1.524;2023-05-16T05:55:56;3.78;;;1.50;;
53389;SDS011;39288;42.970;1.524;2023-05-16T05:56:57;2.50;;;1.80;;
53389;SDS011;39288;42.970;1.524;2023-05-16T05:57:57;3.67;;;2.10;;
53389;SDS011;39288;42.970;1.524;2023-05-16T05:58:58;2.47;;;1.30;;
53389;SDS011;39288;42.970;1.524;2023-05-16T05:59:58;2.90;;;1.50;;
53389;SDS011;39288;42.970;1.524;2023-05-16T06:00:59;3.80;;;1.30;;
53389;SDS011;39288;42.970;1.524;2023-05-16T06:01:59;2.57;;;1.67;;
53389;SDS011;39288;42.970;1.524;2023-05-16T06:03:00;2.30;;;1.60;;
53389;SDS011;39288;42.970;1.524;2023-05-16T06:04:00;2.87;;;1.50;;
53389;SDS011;39288;42.970;1.524;2023-05-16T06:05:01;2.40;;;1.40;;
53389;SDS011;39288;42.970;1.524;2023-05-16T06:06:02;2.90;;;1.50;;
53389;SDS011;39288;42.970;1.524;2023-05-16T06:07:03;1.73;;;0.93;;
53389;SDS011;39288;42.970;1.524;2023-05-16T06:08:04;2.13;;;1.37;;
53389;SDS011;39288;42.970;1.524;2023-05-16T06:09:04;2.50;;;1.20;;
53389;SDS011;39288;42.970;1.524;2023-05-16T06:10:06;1.65;;;1.30;;
53389;SDS011;39288;42.970;1.524;2023-05-16T06:11:07;1.50;;;1.35;;
53389;SDS011;39288;42.970;1.524;2023-05-16T06:12:08;2.73;;;1.20;;
53389;SDS011;39288;42.970;1.524;2023-05-16T06:13:08;5.67;;;1.20;;
53389;SDS011;39288;42.970;1.524;2023-05-16T06:14:09;1.40;;;1.10;;
53389;SDS011;39288;42.970;1.524;2023-05-16T06:15:10;1.90;;;1.20;;
53389;SDS011;39288;42.970;1.524;2023-05-16T06:16:10;1.97;;;1.17;;
53389;SDS011;39288;42.970;1.524;2023-05-16T06:17:11;2.17;;;1.10;;
53389;SDS011;39288;42.970;1.524;2023-05-16T06:18:11;4.40;;;1.40;;
53389;SDS011;39288;42.970;1.524;2023-05-16T06:19:12;2.10;;;1.17;;
53389;SDS011;39288;42.970;1.524;2023-05-16T06:20:15;2.08;;;1.30;;
53389;SDS011;39288;42.970;1.524;2023-05-16T06:21:15;2.33;;;1.20;;
53389;SDS011;39288;42.970;1.524;2023-05-16T06:22:16;1.70;;;1.30;;
53389;SDS011;39288;42.970;1.524;2023-05-16T06:23:16;2.40;;;1.20;;